createdAt,value
2019-03-22T16:26:08.077Z,19.38
2019-03-22T16:28:41.912Z,19.29
2019-03-22T16:31:17.304Z,19.04
2019-03-22T16:33:54.728Z,19.03
2019-03-22T16:36:29.606Z,18.90
2019-03-22T16:39:05.109Z,18.81
2019-03-22T16:41:39.225Z,18.73
2019-03-22T16:44:15.707Z,18.68
2019-03-22T16:46:49.390Z,18.55
2019-03-22T16:49:25.264Z,18.53
2019-03-22T16:52:02.041Z,18.51
2019-03-22T16:54:39.536Z,18.39
2019-03-22T16:57:13.244Z,18.31
2019-03-22T16:59:48.157Z,18.23
2019-03-22T17:02:22.043Z,18.18
2019-03-22T17:04:56.522Z,18.09
2019-03-22T17:07:30.470Z,18.01
2019-03-22T17:10:04.665Z,17.97
2019-03-22T17:12:39.052Z,17.87
2019-03-22T17:15:12.835Z,17.80
2019-03-22T17:17:46.417Z,17.71
2019-03-22T17:20:20.871Z,17.66
2019-03-22T17:22:54.972Z,17.59
2019-03-22T17:25:28.965Z,17.44
2019-03-22T17:28:02.595Z,17.17
2019-03-22T17:30:36.722Z,17.17
2019-03-22T17:33:10.363Z,17.19
2019-03-22T17:35:44.065Z,17.07
2019-03-22T17:38:18.038Z,17.08
2019-03-22T17:40:52.765Z,16.98
2019-03-22T17:43:26.855Z,16.87
2019-03-22T17:46:02.025Z,16.80
2019-03-22T17:48:37.064Z,16.73
2019-03-22T17:51:10.645Z,16.61
2019-03-22T17:53:44.543Z,16.65
2019-03-22T17:56:18.510Z,16.55
2019-03-22T17:58:52.579Z,16.46
2019-03-22T18:01:26.892Z,16.46
2019-03-22T18:04:02.250Z,16.38
2019-03-22T18:06:36.719Z,16.21
2019-03-22T18:09:10.794Z,16.16
2019-03-22T18:11:48.572Z,16.03
2019-03-22T18:14:22.650Z,15.98
2019-03-22T18:16:57.660Z,15.94
2019-03-22T18:19:31.351Z,15.79
2019-03-22T18:22:05.040Z,15.75
2019-03-22T18:24:39.408Z,15.50
2019-03-22T18:27:13.572Z,15.52
2019-03-22T18:29:47.362Z,15.50
2019-03-22T18:32:20.757Z,15.56
2019-03-22T18:34:54.458Z,15.58
2019-03-22T18:37:28.472Z,15.52
2019-03-22T18:40:02.093Z,15.42
2019-03-22T18:42:36.318Z,15.18
2019-03-22T18:45:10.924Z,15.06
2019-03-22T18:47:45.068Z,15.10
2019-03-22T18:50:18.761Z,15.23
2019-03-22T18:52:52.819Z,15.25
2019-03-22T18:55:27.386Z,15.35
2019-03-22T18:58:00.982Z,15.48
2019-03-22T19:00:34.414Z,15.70
2019-03-22T19:03:08.589Z,15.52
2019-03-22T19:05:43.961Z,15.60
2019-03-22T19:08:17.737Z,15.62
2019-03-22T19:10:51.865Z,15.57
2019-03-22T19:13:30.561Z,15.37
2019-03-22T19:16:01.323Z,15.27
2019-03-22T19:18:35.123Z,15.23
2019-03-22T19:21:08.822Z,15.22
2019-03-22T19:23:42.432Z,15.24
2019-03-22T19:26:16.549Z,15.34
2019-03-22T19:28:50.705Z,15.49
2019-03-22T19:31:24.887Z,15.41
2019-03-22T19:33:59.077Z,15.43
2019-03-22T19:36:33.190Z,15.33
2019-03-22T19:39:07.642Z,15.32
2019-03-22T19:41:42.032Z,15.20
2019-03-22T19:44:16.139Z,15.00
2019-03-22T19:46:50.392Z,15.07
2019-03-22T19:49:24.745Z,15.03
2019-03-22T19:51:58.550Z,14.96
2019-03-22T19:54:32.631Z,15.00
2019-03-22T19:57:06.509Z,14.92
2019-03-22T19:59:40.624Z,14.83
2019-03-22T20:02:15.201Z,14.82
2019-03-22T20:04:49.164Z,14.71
2019-03-22T20:07:27.020Z,14.78
2019-03-22T20:09:59.405Z,14.68
2019-03-22T20:12:33.563Z,14.65
2019-03-22T20:15:07.722Z,14.62
2019-03-22T20:17:41.867Z,14.67
2019-03-22T20:20:16.663Z,14.56
2019-03-22T20:22:51.157Z,14.54
2019-03-22T20:25:25.523Z,14.50
2019-03-22T20:27:59.482Z,14.47
2019-03-22T20:30:33.789Z,14.40
2019-03-22T20:33:07.813Z,14.40
2019-03-22T20:35:42.273Z,14.30
2019-03-22T20:38:16.013Z,14.30
2019-03-22T20:40:50.524Z,14.23
2019-03-22T20:43:24.749Z,14.37
2019-03-22T20:45:58.817Z,14.31
2019-03-22T20:48:32.963Z,14.21
2019-03-22T20:51:06.645Z,14.19
2019-03-22T20:53:40.737Z,14.08
2019-03-22T20:56:14.275Z,14.14
2019-03-22T20:58:48.456Z,14.07
2019-03-22T21:01:23.072Z,14.01
2019-03-22T21:03:56.755Z,14.00
2019-03-22T21:06:29.945Z,13.93
2019-03-22T21:09:04.313Z,14.12
2019-03-22T21:11:38.763Z,14.05
2019-03-22T21:14:12.407Z,13.96
2019-03-22T21:16:45.909Z,13.96
2019-03-22T21:19:19.585Z,14.01
2019-03-22T21:21:54.063Z,13.95
2019-03-22T21:24:27.874Z,14.00
2019-03-22T21:27:02.024Z,13.91
2019-03-22T21:29:44.078Z,13.81
2019-03-22T21:32:12.290Z,13.85
2019-03-22T21:34:46.403Z,13.87
2019-03-22T21:37:19.700Z,13.91
2019-03-22T21:39:53.727Z,13.79
2019-03-22T21:42:28.108Z,13.70
2019-03-22T21:45:02.042Z,13.67
2019-03-22T21:47:35.874Z,13.54
2019-03-22T21:50:10.026Z,13.22
2019-03-22T21:52:46.318Z,12.98
2019-03-22T21:55:20.845Z,12.83
2019-03-22T21:57:54.545Z,12.74
2019-03-22T22:00:28.392Z,12.66
2019-03-22T22:03:02.071Z,12.55
2019-03-22T22:05:35.713Z,12.24
2019-03-22T22:08:09.163Z,12.21
2019-03-22T22:10:43.308Z,12.35
2019-03-22T22:13:17.464Z,12.21
2019-03-22T22:15:50.776Z,12.32
2019-03-22T22:18:25.351Z,12.25
2019-03-22T22:20:59.333Z,12.38
2019-03-22T22:23:33.733Z,12.50
2019-03-22T22:26:07.560Z,12.30
2019-03-22T22:28:41.909Z,12.28
2019-03-22T22:31:15.615Z,12.28
2019-03-22T22:33:49.985Z,12.37
2019-03-22T22:36:24.318Z,12.39
2019-03-22T22:38:58.344Z,12.38
2019-03-22T22:41:32.334Z,12.38
2019-03-22T22:44:06.517Z,12.43
2019-03-22T22:46:41.047Z,12.33
2019-03-22T22:49:14.711Z,12.42
2019-03-22T22:51:49.238Z,12.26
2019-03-22T22:54:22.809Z,12.18
2019-03-22T22:56:56.398Z,12.14
2019-03-22T22:59:30.622Z,12.16
2019-03-22T23:02:05.396Z,12.10
2019-03-22T23:04:39.133Z,12.02
2019-03-22T23:07:12.905Z,11.95
2019-03-22T23:09:46.552Z,11.98
2019-03-22T23:12:19.838Z,11.97
2019-03-22T23:14:53.433Z,12.00
2019-03-22T23:17:27.068Z,11.90
2019-03-22T23:20:01.167Z,11.72
2019-03-22T23:22:35.657Z,11.74
2019-03-22T23:25:09.236Z,11.74
2019-03-22T23:27:43.480Z,11.67
2019-03-22T23:30:17.522Z,11.64
2019-03-22T23:32:51.625Z,11.61
2019-03-22T23:35:25.744Z,11.64
2019-03-22T23:37:59.821Z,11.59
2019-03-22T23:40:34.243Z,11.65
2019-03-22T23:43:07.164Z,11.69
2019-03-22T23:45:41.600Z,11.58
2019-03-22T23:48:15.660Z,11.44
2019-03-22T23:50:49.671Z,11.44
2019-03-22T23:53:23.929Z,11.51
2019-03-22T23:55:58.520Z,11.38
2019-03-22T23:58:32.869Z,11.30
